sensor_id;sensor_type;location;lat;lon;timestamp;pressure;altitude;pressure_sealevel;temperature;humidity
41573;BME280;27286;47.870;19.006;2023-01-08T00:00:55;99560.72;;;5.01;100.00
41573;BME280;27286;47.870;19.006;2023-01-08T00:03:21;99553.06;;;4.96;100.00
41573;BME280;27286;47.870;19.006;2023-01-08T00:05:46;99558.22;;;4.96;100.00
41573;BME280;27286;47.870;19.006;2023-01-08T00:08:12;99552.16;;;4.97;100.00
41573;BME280;27286;47.870;19.006;2023-01-08T00:10:37;99566.72;;;5.01;100.00
41573;BME280;27286;47.870;19.006;2023-01-08T00:13:04;99551.25;;;5.01;100.00
41573;BME280;27286;47.870;19.006;2023-01-08T00:15:30;99556.38;;;5.03;100.00
41573;BME280;27286;47.870;19.006;2023-01-08T00:17:57;99545.19;;;5.02;100.00
41573;BME280;27286;47.870;19.006;2023-01-08T00:20:23;99550.38;;;5.01;100.00
41573;BME280;27286;47.870;19.006;2023-01-08T00:22:49;99549.50;;;5.02;100.00
41573;BME280;27286;47.870;19.006;2023-01-08T00:25:14;99546.94;;;5.02;100.00
41573;BME280;27286;47.870;19.006;2023-01-08T00:27:40;99542.63;;;5.04;100.00
41573;BME280;27286;47.870;19.006;2023-01-08T00:30:05;99534.06;;;5.00;100.00
41573;BME280;27286;47.870;19.006;2023-01-08T00:32:31;99534.00;;;5.03;100.00
41573;BME280;27286;47.870;19.006;2023-01-08T00:34:56;99529.72;;;5.02;100.00
41573;BME280;27286;47.870;19.006;2023-01-08T00:37:22;99534.88;;;5.04;100.00
41573;BME280;27286;47.870;19.006;2023-01-08T00:39:47;99540.88;;;5.03;100.00
41573;BME280;27286;47.870;19.006;2023-01-08T00:42:13;99539.19;;;5.02;100.00
41573;BME280;27286;47.870;19.006;2023-01-08T00:44:38;99541.75;;;5.05;100.00
41573;BME280;27286;47.870;19.006;2023-01-08T00:47:04;99540.84;;;5.06;100.00
41573;BME280;27286;47.870;19.006;2023-01-08T00:49:29;99541.72;;;5.06;100.00
41573;BME280;27286;47.870;19.006;2023-01-08T00:51:55;99545.16;;;5.07;100.00
41573;BME280;27286;47.870;19.006;2023-01-08T00:54:20;99553.75;;;5.06;100.00
41573;BME280;27286;47.870;19.006;2023-01-08T00:56:46;99557.22;;;5.05;100.00
41573;BME280;27286;47.870;19.006;2023-01-08T00:59:11;99558.94;;;5.06;100.00
41573;BME280;27286;47.870;19.006;2023-01-08T01:01:36;99560.66;;;5.05;100.00
41573;BME280;27286;47.870;19.006;2023-01-08T01:04:02;99561.50;;;5.06;100.00
41573;BME280;27286;47.870;19.006;2023-01-08T01:06:28;99549.44;;;5.06;100.00
41573;BME280;27286;47.870;19.006;2023-01-08T01:08:53;99549.44;;;5.06;100.00
41573;BME280;27286;47.870;19.006;2023-01-08T01:11:22;99551.16;;;5.07;100.00
41573;BME280;27286;47.870;19.006;2023-01-08T01:13:48;99546.00;;;5.07;100.00
41573;BME280;27286;47.870;19.006;2023-01-08T01:16:14;99545.13;;;5.08;100.00
41573;BME280;27286;47.870;19.006;2023-01-08T01:18:39;99540.78;;;5.10;100.00
41573;BME280;27286;47.870;19.006;2023-01-08T01:21:20;99543.28;;;5.13;100.00
41573;BME280;27286;47.870;19.006;2023-01-08T01:23:46;99542.41;;;5.14;100.00
41573;BME280;27286;47.870;19.006;2023-01-08T01:26:14;99540.69;;;5.15;100.00
41573;BME280;27286;47.870;19.006;2023-01-08T01:28:41;99540.72;;;5.13;100.00
41573;BME280;27286;47.870;19.006;2023-01-08T01:31:09;99532.94;;;5.15;100.00
41573;BME280;27286;47.870;19.006;2023-01-08T01:33:36;99534.66;;;5.14;100.00
41573;BME280;27286;47.870;19.006;2023-01-08T01:36:01;99529.50;;;5.14;100.00
41573;BME280;27286;47.870;19.006;2023-01-08T01:38:27;99528.63;;;5.16;100.00
41573;BME280;27286;47.870;19.006;2023-01-08T01:40:53;99531.19;;;5.17;100.00
41573;BME280;27286;47.870;19.006;2023-01-08T01:43:38;99520.00;;;5.17;100.00
41573;BME280;27286;47.870;19.006;2023-01-08T01:46:34;99514.00;;;5.16;100.00
41573;BME280;27286;47.870;19.006;2023-01-08T01:49:03;99501.97;;;5.15;100.00
41573;BME280;27286;47.870;19.006;2023-01-08T01:51:32;99496.84;;;5.13;100.00
41573;BME280;27286;47.870;19.006;2023-01-08T01:54:00;99491.66;;;5.15;100.00
41573;BME280;27286;47.870;19.006;2023-01-08T01:56:28;99488.25;;;5.13;100.00
41573;BME280;27286;47.870;19.006;2023-01-08T01:58:54;99475.34;;;5.13;100.00
41573;BME280;27286;47.870;19.006;2023-01-08T02:01:20;99470.19;;;5.13;100.00
41573;BME280;27286;47.870;19.006;2023-01-08T02:03:46;99484.03;;;5.09;100.00
41573;BME280;27286;47.870;19.006;2023-01-08T02:06:36;99493.53;;;5.07;100.00
41573;BME280;27286;47.870;19.006;2023-01-08T02:09:31;99475.50;;;5.05;100.00
41573;BME280;27286;47.870;19.006;2023-01-08T02:12:09;99478.97;;;5.04;100.00
41573;BME280;27286;47.870;19.006;2023-01-08T02:28:33;99473.81;;;5.04;100.00
41573;BME280;27286;47.870;19.006;2023-01-08T02:31:00;99472.03;;;5.06;100.00
41573;BME280;27286;47.870;19.006;2023-01-08T02:33:28;99472.03;;;5.06;100.00
41573;BME280;27286;47.870;19.006;2023-01-08T02:36:14;99469.50;;;5.05;100.00
41573;BME280;27286;47.870;19.006;2023-01-08T02:41:35;99461.69;;;5.08;100.00
41573;BME280;27286;47.870;19.006;2023-01-08T02:44:07;99461.69;;;5.08;100.00
41573;BME280;27286;47.870;19.006;2023-01-08T02:46:36;99464.28;;;5.08;100.00
41573;BME280;27286;47.870;19.006;2023-01-08T02:49:06;99456.53;;;5.08;100.00
41573;BME280;27286;47.870;19.006;2023-01-08T02:51:38;99454.84;;;5.07;100.00
41573;BME280;27286;47.870;19.006;2023-01-08T02:54:09;99446.22;;;5.08;100.00
41573;BME280;27286;47.870;19.006;2023-01-08T02:56:39;99445.38;;;5.07;100.00
41573;BME280;27286;47.870;19.006;2023-01-08T02:59:07;99443.63;;;5.08;100.00
41573;BME280;27286;47.870;19.006;2023-01-08T03:01:35;99446.25;;;5.06;100.00
41573;BME280;27286;47.870;19.006;2023-01-08T03:04:05;99446.28;;;5.05;100.00
41573;BME280;27286;47.870;19.006;2023-01-08T03:06:32;99453.16;;;5.04;100.00
41573;BME280;27286;47.870;19.006;2023-01-08T03:08:58;99447.97;;;5.06;100.00
41573;BME280;27286;47.870;19.006;2023-01-08T03:11:29;99444.56;;;5.04;100.00
41573;BME280;27286;47.870;19.006;2023-01-08T03:16:58;99448.81;;;5.06;100.00
41573;BME280;27286;47.870;19.006;2023-01-08T03:19:35;99444.50;;;5.07;100.00
41573;BME280;27286;47.870;19.006;2023-01-08T03:22:03;99442.78;;;5.07;100.00
41573;BME280;27286;47.870;19.006;2023-01-08T03:24:33;99437.63;;;5.07;100.00
41573;BME280;27286;47.870;19.006;2023-01-08T03:27:04;99445.38;;;5.07;100.00
41573;BME280;27286;47.870;19.006;2023-01-08T03:29:31;99426.53;;;5.01;100.00
41573;BME280;27286;47.870;19.006;2023-01-08T03:32:02;99432.47;;;5.07;100.00
41573;BME280;27286;47.870;19.006;2023-01-08T03:34:30;99434.22;;;5.05;100.00
41573;BME280;27286;47.870;19.006;2023-01-08T03:36:57;99431.59;;;5.07;100.00
41573;BME280;27286;47.870;19.006;2023-01-08T03:39:33;99423.06;;;5.05;100.00
41573;BME280;27286;47.870;19.006;2023-01-08T03:42:06;99423.06;;;5.05;100.00
41573;BME280;27286;47.870;19.006;2023-01-08T03:44:33;99414.47;;;5.04;100.00
41573;BME280;27286;47.870;19.006;2023-01-08T03:46:59;99408.34;;;5.08;100.00
41573;BME280;27286;47.870;19.006;2023-01-08T03:49:27;99406.66;;;5.07;100.00
41573;BME280;27286;47.870;19.006;2023-01-08T03:51:53;99414.44;;;5.06;100.00
41573;BME280;27286;47.870;19.006;2023-01-08T03:54:23;99409.28;;;5.06;100.00
41573;BME280;27286;47.870;19.006;2023-01-08T03:56:49;99412.72;;;5.05;100.00
41573;BME280;27286;47.870;19.006;2023-01-08T03:59:15;99415.31;;;5.03;100.00
41573;BME280;27286;47.870;19.006;2023-01-08T04:01:41;99416.19;;;5.04;100.00
41573;BME280;27286;47.870;19.006;2023-01-08T04:04:07;99416.19;;;5.04;100.00
41573;BME280;27286;47.870;19.006;2023-01-08T04:06:32;99409.28;;;5.06;100.00
41573;BME280;27286;47.870;19.006;2023-01-08T04:08:58;99409.31;;;5.04;100.00
41573;BME280;27286;47.870;19.006;2023-01-08T04:11:23;99403.28;;;5.04;100.00
41573;BME280;27286;47.870;19.006;2023-01-08T04:13:49;99411.84;;;5.06;100.00
41573;BME280;27286;47.870;19.006;2023-01-08T04:16:15;99409.28;;;5.06;100.00
41573;BME280;27286;47.870;19.006;2023-01-08T04:18:40;99401.56;;;5.04;100.00
41573;BME280;27286;47.870;19.006;2023-01-08T04:21:06;99397.34;;;4.99;100.00
41573;BME280;27286;47.870;19.006;2023-01-08T04:23:31;99399.84;;;5.05;100.00
41573;BME280;27286;47.870;19.006;2023-01-08T04:25:57;99395.56;;;5.04;100.00
41573;BME280;27286;47.870;19.006;2023-01-08T04:28:22;99401.56;;;5.03;100.00
41573;BME280;27286;47.870;19.006;2023-01-08T04:30:49;99399.84;;;5.03;100.00
41573;BME280;27286;47.870;19.006;2023-01-08T04:33:14;99399.97;;;4.97;100.00
41573;BME280;27286;47.870;19.006;2023-01-08T04:35:40;99404.25;;;4.98;100.00
41573;BME280;27286;47.870;19.006;2023-01-08T04:38:05;99405.97;;;4.98;100.00
41573;BME280;27286;47.870;19.006;2023-01-08T04:40:34;99404.25;;;4.98;100.00
41573;BME280;27286;47.870;19.006;2023-01-08T04:42:59;99398.16;;;5.01;100.00
41573;BME280;27286;47.870;19.006;2023-01-08T04:45:25;99398.09;;;5.05;100.00
41573;BME280;27286;47.870;19.006;2023-01-08T04:47:57;99402.41;;;5.03;100.00
41573;BME280;27286;47.870;19.006;2023-01-08T04:50:23;99405.88;;;5.02;100.00
41573;BME280;27286;47.870;19.006;2023-01-08T04:52:48;99412.75;;;5.02;100.00
41573;BME280;27286;47.870;19.006;2023-01-08T04:55:13;99406.75;;;5.01;100.00
41573;BME280;27286;47.870;19.006;2023-01-08T04:57:39;99399.91;;;5.00;100.00
41573;BME280;27286;47.870;19.006;2023-01-08T05:00:05;99394.78;;;4.99;100.00
41573;BME280;27286;47.870;19.006;2023-01-08T05:02:30;99389.59;;;4.99;100.00
41573;BME280;27286;47.870;19.006;2023-01-08T05:04:56;99388.72;;;5.00;100.00
41573;BME280;27286;47.870;19.006;2023-01-08T05:07:21;99395.59;;;5.01;100.00
41573;BME280;27286;47.870;19.006;2023-01-08T05:09:47;99396.41;;;5.04;100.00
41573;BME280;27286;47.870;19.006;2023-01-08T05:12:12;99392.97;;;5.04;100.00
41573;BME280;27286;47.870;19.006;2023-01-08T05:14:37;99389.50;;;5.03;100.00
41573;BME280;27286;47.870;19.006;2023-01-08T05:17:03;99390.38;;;5.04;100.00
41573;BME280;27286;47.870;19.006;2023-01-08T05:19:28;99386.94;;;5.05;100.00
41573;BME280;27286;47.870;19.006;2023-01-08T05:21:54;99385.22;;;5.04;100.00
41573;BME280;27286;47.870;19.006;2023-01-08T05:24:19;99386.09;;;5.04;100.00
41573;BME280;27286;47.870;19.006;2023-01-08T05:26:45;99384.31;;;5.06;100.00
41573;BME280;27286;47.870;19.006;2023-01-08T05:29:10;99393.78;;;5.06;100.00
41573;BME280;27286;47.870;19.006;2023-01-08T05:31:35;99386.97;;;5.02;100.00
41573;BME280;27286;47.870;19.006;2023-01-08T05:34:01;99391.25;;;5.04;100.00
41573;BME280;27286;47.870;19.006;2023-01-08T05:36:26;99388.63;;;5.06;100.00
41573;BME280;27286;47.870;19.006;2023-01-08T05:38:52;99380.88;;;5.06;100.00
41573;BME280;27286;47.870;19.006;2023-01-08T05:41:17;99390.31;;;5.07;100.00
41573;BME280;27286;47.870;19.006;2023-01-08T05:43:43;99382.59;;;5.07;100.00
41573;BME280;27286;47.870;19.006;2023-01-08T05:46:08;99383.41;;;5.09;100.00
41573;BME280;27286;47.870;19.006;2023-01-08T05:48:34;99382.56;;;5.08;100.00
41573;BME280;27286;47.870;19.006;2023-01-08T05:51:02;99375.66;;;5.09;100.00
41573;BME280;27286;47.870;19.006;2023-01-08T05:53:27;99379.94;;;5.10;100.00
41573;BME280;27286;47.870;19.006;2023-01-08T05:55:58;99375.66;;;5.09;100.00
41573;BME280;27286;47.870;19.006;2023-01-08T05:58:24;99372.19;;;5.10;100.00
41573;BME280;27286;47.870;19.006;2023-01-08T06:00:51;99367.09;;;5.07;100.00
41573;BME280;27286;47.870;19.006;2023-01-08T06:03:19;99365.31;;;5.10;100.00
41573;BME280;27286;47.870;19.006;2023-01-08T06:05:45;99371.31;;;5.11;100.00
41573;BME280;27286;47.870;19.006;2023-01-08T06:08:10;99361.06;;;5.08;100.00
41573;BME280;27286;47.870;19.006;2023-01-08T06:10:37;99367.91;;;5.09;100.00
41573;BME280;27286;47.870;19.006;2023-01-08T06:13:06;99364.47;;;5.10;100.00
41573;BME280;27286;47.870;19.006;2023-01-08T06:15:31;99368.72;;;5.11;100.00
41573;BME280;27286;47.870;19.006;2023-01-08T06:18:01;99361.81;;;5.13;100.00
41573;BME280;27286;47.870;19.006;2023-01-08T06:20:26;99352.38;;;5.12;100.00
41573;BME280;27286;47.870;19.006;2023-01-08T06:22:52;99356.66;;;5.13;100.00
41573;BME280;27286;47.870;19.006;2023-01-08T06:25:18;99354.06;;;5.13;100.00
41573;BME280;27286;47.870;19.006;2023-01-08T06:27:43;99357.59;;;5.09;100.00
41573;BME280;27286;47.870;19.006;2023-01-08T06:30:09;99355.84;;;5.11;100.00
41573;BME280;27286;47.870;19.006;2023-01-08T06:32:34;99353.25;;;5.11;100.00
41573;BME280;27286;47.870;19.006;2023-01-08T06:35:00;99356.63;;;5.14;100.00
41573;BME280;27286;47.870;19.006;2023-01-08T06:37:25;99354.06;;;5.13;100.00
41573;BME280;27286;47.870;19.006;2023-01-08T06:39:51;99352.34;;;5.13;100.00
41573;BME280;27286;47.870;19.006;2023-01-08T06:42:16;99368.69;;;5.12;100.00
41573;BME280;27286;47.870;19.006;2023-01-08T06:44:42;99359.19;;;5.14;100.00
41573;BME280;27286;47.870;19.006;2023-01-08T06:47:07;99369.59;;;5.11;100.00
41573;BME280;27286;47.870;19.006;2023-01-08T06:49:32;99361.84;;;5.11;100.00
41573;BME280;27286;47.870;19.006;2023-01-08T06:51:58;99359.16;;;5.16;100.00
41573;BME280;27286;47.870;19.006;2023-01-08T06:54:23;99349.75;;;5.13;100.00
41573;BME280;27286;47.870;19.006;2023-01-08T06:56:49;99355.75;;;5.14;100.00
41573;BME280;27286;47.870;19.006;2023-01-08T06:59:14;99354.88;;;5.15;100.00
41573;BME280;27286;47.870;19.006;2023-01-08T07:01:40;99346.38;;;5.11;100.00
41573;BME280;27286;47.870;19.006;2023-01-08T07:04:05;99340.28;;;5.14;100.00
41573;BME280;27286;47.870;19.006;2023-01-08T07:06:30;99342.13;;;5.09;100.00
41573;BME280;27286;47.870;19.006;2023-01-08T07:08:56;99344.72;;;5.07;100.00
41573;BME280;27286;47.870;19.006;2023-01-08T07:11:21;99345.63;;;5.06;100.00
41573;BME280;27286;47.870;19.006;2023-01-08T07:13:47;99348.28;;;5.00;100.00
41573;BME280;27286;47.870;19.006;2023-01-08T07:16:13;99343.13;;;5.00;100.00
41573;BME280;27286;47.870;19.006;2023-01-08T07:18:39;99338.78;;;5.04;100.00
41573;BME280;27286;47.870;19.006;2023-01-08T07:21:06;99340.53;;;5.02;100.00
41573;BME280;27286;47.870;19.006;2023-01-08T07:23:33;99338.81;;;5.01;100.00
41573;BME280;27286;47.870;19.006;2023-01-08T07:26:02;99344.00;;;5.01;100.00
41573;BME280;27286;47.870;19.006;2023-01-08T07:28:28;99341.44;;;4.99;100.00
41573;BME280;27286;47.870;19.006;2023-01-08T07:30:54;99344.00;;;5.01;100.00
41573;BME280;27286;47.870;19.006;2023-01-08T07:33:20;99347.38;;;5.03;100.00
41573;BME280;27286;47.870;19.006;2023-01-08T07:35:52;99346.47;;;5.07;100.00
41573;BME280;27286;47.870;19.006;2023-01-08T07:38:17;99354.19;;;5.07;100.00
41573;BME280;27286;47.870;19.006;2023-01-08T07:40:43;99346.47;;;5.07;100.00
41573;BME280;27286;47.870;19.006;2023-01-08T07:43:08;99349.03;;;5.07;100.00
41573;BME280;27286;47.870;19.006;2023-01-08T07:45:36;99345.63;;;5.06;100.00
41573;BME280;27286;47.870;19.006;2023-01-08T07:48:01;99341.31;;;5.07;100.00
41573;BME280;27286;47.870;19.006;2023-01-08T07:50:27;99343.03;;;5.06;100.00
41573;BME280;27286;47.870;19.006;2023-01-08T07:52:56;99343.88;;;5.07;100.00
41573;BME280;27286;47.870;19.006;2023-01-08T07:55:22;99341.28;;;5.08;100.00
41573;BME280;27286;47.870;19.006;2023-01-08T07:57:48;99334.34;;;5.10;100.00
41573;BME280;27286;47.870;19.006;2023-01-08T08:00:13;99330.88;;;5.11;100.00
41573;BME280;27286;47.870;19.006;2023-01-08T08:02:39;99336.00;;;5.13;100.00
41573;BME280;27286;47.870;19.006;2023-01-08T08:05:04;99326.53;;;5.13;100.00
41573;BME280;27286;47.870;19.006;2023-01-08T08:07:30;99326.50;;;5.15;100.00
41573;BME280;27286;47.870;19.006;2023-01-08T08:09:56;99327.28;;;5.19;100.00
41573;BME280;27286;47.870;19.006;2023-01-08T08:12:21;99329.03;;;5.17;100.00
41573;BME280;27286;47.870;19.006;2023-01-08T08:14:46;99325.63;;;5.16;100.00
41573;BME280;27286;47.870;19.006;2023-01-08T08:17:12;99314.47;;;5.14;100.00
41573;BME280;27286;47.870;19.006;2023-01-08T08:19:37;99317.88;;;5.16;100.00
41573;BME280;27286;47.870;19.006;2023-01-08T08:22:05;99316.94;;;5.19;100.00
41573;BME280;27286;47.870;19.006;2023-01-08T08:24:30;99320.38;;;5.19;100.00
41573;BME280;27286;47.870;19.006;2023-01-08T08:26:56;99315.16;;;5.24;100.00
41573;BME280;27286;47.870;19.006;2023-01-08T08:29:21;99307.41;;;5.24;100.00
41573;BME280;27286;47.870;19.006;2023-01-08T08:31:46;99309.09;;;5.25;100.00
41573;BME280;27286;47.870;19.006;2023-01-08T08:34:12;99297.94;;;5.24;100.00
41573;BME280;27286;47.870;19.006;2023-01-08T08:36:37;99300.53;;;5.23;100.00
41573;BME280;27286;47.870;19.006;2023-01-08T08:39:03;99302.19;;;5.25;100.00
41573;BME280;27286;47.870;19.006;2023-01-08T08:41:28;99298.75;;;5.26;100.00
41573;BME280;27286;47.870;19.006;2023-01-08T08:43:54;99299.63;;;5.25;100.00
41573;BME280;27286;47.870;19.006;2023-01-08T08:46:19;99302.28;;;5.22;100.00
41573;BME280;27286;47.870;19.006;2023-01-08T08:48:45;99298.81;;;5.23;100.00
41573;BME280;27286;47.870;19.006;2023-01-08T08:51:10;99299.69;;;5.22;100.00
41573;BME280;27286;47.870;19.006;2023-01-08T08:53:36;99295.28;;;5.27;100.00
41573;BME280;27286;47.870;19.006;2023-01-08T08:56:02;99295.31;;;5.26;100.00
41573;BME280;27286;47.870;19.006;2023-01-08T08:58:27;99300.47;;;5.26;100.00
41573;BME280;27286;47.870;19.006;2023-01-08T09:00:53;99297.94;;;5.24;100.00
41573;BME280;27286;47.870;19.006;2023-01-08T09:03:18;99298.75;;;5.26;100.00
41573;BME280;27286;47.870;19.006;2023-01-08T09:05:44;99299.50;;;5.30;100.00
41573;BME280;27286;47.870;19.006;2023-01-08T09:08:10;99306.38;;;5.31;100.00
41573;BME280;27286;47.870;19.006;2023-01-08T09:10:37;99300.38;;;5.30;100.00
41573;BME280;27286;47.870;19.006;2023-01-08T09:13:03;99301.16;;;5.32;100.00
41573;BME280;27286;47.870;19.006;2023-01-08T09:15:28;99302.06;;;5.31;100.00
41573;BME280;27286;47.870;19.006;2023-01-08T09:17:54;99293.38;;;5.34;100.00
41573;BME280;27286;47.870;19.006;2023-01-08T09:20:21;99286.56;;;5.31;100.00
41573;BME280;27286;47.870;19.006;2023-01-08T09:22:47;99279.69;;;5.32;100.00
41573;BME280;27286;47.870;19.006;2023-01-08T09:25:13;99274.63;;;5.27;100.00
41573;BME280;27286;47.870;19.006;2023-01-08T09:27:38;99273.66;;;5.31;100.00
41573;BME280;27286;47.870;19.006;2023-01-08T09:30:04;99278.72;;;5.36;100.00
41573;BME280;27286;47.870;19.006;2023-01-08T09:32:30;99268.34;;;5.39;100.00
41573;BME280;27286;47.870;19.006;2023-01-08T09:34:55;99262.38;;;5.35;100.00
41573;BME280;27286;47.870;19.006;2023-01-08T09:37:20;99273.56;;;5.36;100.00
41573;BME280;27286;47.870;19.006;2023-01-08T09:39:48;99260.56;;;5.40;100.00
41573;BME280;27286;47.870;19.006;2023-01-08T09:42:15;99257.88;;;5.45;100.00
41573;BME280;27286;47.870;19.006;2023-01-08T09:44:46;99260.38;;;5.48;100.00
41573;BME280;27286;47.870;19.006;2023-01-08T09:47:28;99243.16;;;5.49;100.00
41573;BME280;27286;47.870;19.006;2023-01-08T09:50:00;99237.19;;;5.47;100.00
41573;BME280;27286;47.870;19.006;2023-01-08T09:52:28;99236.31;;;5.46;100.00
41573;BME280;27286;47.870;19.006;2023-01-08T09:54:55;99230.25;;;5.49;100.00
41573;BME280;27286;47.870;19.006;2023-01-08T09:57:21;99228.47;;;5.51;100.00
41573;BME280;27286;47.870;19.006;2023-01-08T09:59:47;99224.22;;;5.48;100.00
41573;BME280;27286;47.870;19.006;2023-01-08T10:02:18;99225.88;;;5.51;100.00
41573;BME280;27286;47.870;19.006;2023-01-08T10:04:46;99224.06;;;5.56;100.00
41573;BME280;27286;47.870;19.006;2023-01-08T10:07:20;99221.59;;;5.50;100.00
41573;BME280;27286;47.870;19.006;2023-01-08T10:09:47;99220.88;;;5.44;100.00
41573;BME280;27286;47.870;19.006;2023-01-08T10:12:27;99209.78;;;5.41;100.00
41573;BME280;27286;47.870;19.006;2023-01-08T10:14:55;99209.78;;;5.41;100.00
41573;BME280;27286;47.870;19.006;2023-01-08T10:17:27;99202.03;;;5.41;100.00
41573;BME280;27286;47.870;19.006;2023-01-08T10:19:55;99191.66;;;5.42;100.00
41573;BME280;27286;47.870;19.006;2023-01-08T10:22:23;99190.91;;;5.39;100.00
41573;BME280;27286;47.870;19.006;2023-01-08T10:24:49;99190.91;;;5.39;100.00
41573;BME280;27286;47.870;19.006;2023-01-08T10:27:21;99189.91;;;5.44;100.00
41573;BME280;27286;47.870;19.006;2023-01-08T10:29:49;99172.78;;;5.40;100.00
41573;BME280;27286;47.870;19.006;2023-01-08T10:34:50;99180.38;;;5.47;100.00
41573;BME280;27286;47.870;19.006;2023-01-08T10:39:49;99170.00;;;5.48;100.00
41573;BME280;27286;47.870;19.006;2023-01-08T10:42:16;99172.72;;;5.43;100.00
41573;BME280;27286;47.870;19.006;2023-01-08T10:44:52;99171.94;;;5.40;100.00
41573;BME280;27286;47.870;19.006;2023-01-08T10:47:18;99168.50;;;5.39;100.00
41573;BME280;27286;47.870;19.006;2023-01-08T10:49:44;99169.31;;;5.41;100.00
41573;BME280;27286;47.870;19.006;2023-01-08T10:52:31;99154.78;;;5.37;100.00
41573;BME280;27286;47.870;19.006;2023-01-08T10:55:09;99154.78;;;5.37;100.00
41573;BME280;27286;47.870;19.006;2023-01-08T10:57:35;99152.13;;;5.40;100.00
41573;BME280;27286;47.870;19.006;2023-01-08T11:00:00;99148.66;;;5.41;100.00
41573;BME280;27286;47.870;19.006;2023-01-08T11:02:34;99149.41;;;5.47;100.00
41573;BME280;27286;47.870;19.006;2023-01-08T11:05:02;99144.19;;;5.48;100.00
41573;BME280;27286;47.870;19.006;2023-01-08T11:07:28;99148.28;;;5.57;100.00
41573;BME280;27286;47.870;19.006;2023-01-08T11:09:55;99136.41;;;5.50;100.00
41573;BME280;27286;47.870;19.006;2023-01-08T11:14:49;99123.56;;;5.47;100.00
41573;BME280;27286;47.870;19.006;2023-01-08T11:17:14;99126.19;;;5.45;100.00
41573;BME280;27286;47.870;19.006;2023-01-08T11:19:40;99119.94;;;5.54;100.00
41573;BME280;27286;47.870;19.006;2023-01-08T11:22:18;99117.25;;;5.58;100.00
41573;BME280;27286;47.870;19.006;2023-01-08T11:24:44;99108.53;;;5.62;100.00
41573;BME280;27286;47.870;19.006;2023-01-08T11:27:30;99111.88;;;5.66;98.81
41573;BME280;27286;47.870;19.006;2023-01-08T11:30:04;99097.09;;;5.71;98.59
41573;BME280;27286;47.870;19.006;2023-01-08T11:35:27;99097.31;;;5.63;97.74
41573;BME280;27286;47.870;19.006;2023-01-08T11:37:56;99089.63;;;5.62;98.72
41573;BME280;27286;47.870;19.006;2023-01-08T11:40:36;99083.44;;;5.67;98.79
41573;BME280;27286;47.870;19.006;2023-01-08T11:43:15;99076.53;;;5.68;99.19
41573;BME280;27286;47.870;19.006;2023-01-08T11:57:41;99054.28;;;5.95;96.68
41573;BME280;27286;47.870;19.006;2023-01-08T12:02:25;99050.19;;;5.86;97.04
41573;BME280;27286;47.870;19.006;2023-01-08T12:05:07;99045.78;;;5.91;97.73
41573;BME280;27286;47.870;19.006;2023-01-08T12:10:23;99038.94;;;5.90;98.06
41573;BME280;27286;47.870;19.006;2023-01-08T12:13:18;99037.06;;;5.95;97.58
41573;BME280;27286;47.870;19.006;2023-01-08T12:24:44;99059.50;;;5.93;97.66
41573;BME280;27286;47.870;19.006;2023-01-08T12:27:37;99057.81;;;5.92;98.08
41573;BME280;27286;47.870;19.006;2023-01-08T12:31:08;99057.88;;;5.88;97.79
41573;BME280;27286;47.870;19.006;2023-01-08T12:33:46;99066.53;;;5.87;97.57
41573;BME280;27286;47.870;19.006;2023-01-08T12:36:19;99059.81;;;5.81;97.66
41573;BME280;27286;47.870;19.006;2023-01-08T12:38:59;99061.53;;;5.81;98.39
41573;BME280;27286;47.870;19.006;2023-01-08T12:41:27;99059.09;;;5.76;98.67
41573;BME280;27286;47.870;19.006;2023-01-08T12:44:00;99048.72;;;5.78;98.70
41573;BME280;27286;47.870;19.006;2023-01-08T12:46:34;99054.69;;;5.80;98.86
41573;BME280;27286;47.870;19.006;2023-01-08T12:49:04;99046.06;;;5.81;98.76
41573;BME280;27286;47.870;19.006;2023-01-08T12:59:29;99060.56;;;5.85;99.06
41573;BME280;27286;47.870;19.006;2023-01-08T13:02:02;99050.19;;;5.86;98.66
41573;BME280;27286;47.870;19.006;2023-01-08T13:04:43;99048.44;;;5.87;98.69
41573;BME280;27286;47.870;19.006;2023-01-08T13:07:29;99051.03;;;5.87;99.20
41573;BME280;27286;47.870;19.006;2023-01-08T13:12:57;99047.53;;;5.89;99.86
41573;BME280;27286;47.870;19.006;2023-01-08T13:15:27;99049.25;;;5.90;99.62
41573;BME280;27286;47.870;19.006;2023-01-08T13:17:55;99045.78;;;5.91;99.81
41573;BME280;27286;47.870;19.006;2023-01-08T13:20:24;99031.97;;;5.92;99.26
41573;BME280;27286;47.870;19.006;2023-01-08T13:22:55;99031.97;;;5.92;98.83
41573;BME280;27286;47.870;19.006;2023-01-08T13:25:49;99040.53;;;5.94;98.85
41573;BME280;27286;47.870;19.006;2023-01-08T13:28:26;99040.38;;;5.99;99.19
41573;BME280;27286;47.870;19.006;2023-01-08T13:30:53;99043.81;;;5.99;99.55
41573;BME280;27286;47.870;19.006;2023-01-08T13:41:37;99036.31;;;5.92;100.00
41573;BME280;27286;47.870;19.006;2023-01-08T13:44:32;99037.19;;;5.91;100.00
41573;BME280;27286;47.870;19.006;2023-01-08T13:47:05;99027.66;;;5.93;100.00
41573;BME280;27286;47.870;19.006;2023-01-08T13:49:42;99036.22;;;5.95;100.00
41573;BME280;27286;47.870;19.006;2023-01-08T13:52:41;99045.59;;;5.97;100.00
41573;BME280;27286;47.870;19.006;2023-01-08T13:55:14;99045.59;;;5.97;100.00
41573;BME280;27286;47.870;19.006;2023-01-08T13:57:47;99038.84;;;5.93;100.00
41573;BME280;27286;47.870;19.006;2023-01-08T14:00:23;99038.84;;;5.93;100.00
41573;BME280;27286;47.870;19.006;2023-01-08T14:02:49;99031.09;;;5.93;100.00
41573;BME280;27286;47.870;19.006;2023-01-08T14:05:23;99026.81;;;5.92;100.00
41573;BME280;27286;47.870;19.006;2023-01-08T14:07:49;99039.78;;;5.91;100.00
41573;BME280;27286;47.870;19.006;2023-01-08T14:10:15;99030.34;;;5.88;100.00
41573;BME280;27286;47.870;19.006;2023-01-08T14:12:41;99033.78;;;5.87;100.00